sensor_id;sensor_type;location;lat;lon;timestamp;P1;durP1;ratioP1;P2;durP2;ratioP2
64653;SDS011;51065;48.884;12.598;2022-11-15T00:01:43;20.73;;;9.32;;
64653;SDS011;51065;48.884;12.598;2022-11-15T00:04:09;23.45;;;9.98;;
64653;SDS011;51065;48.884;12.598;2022-11-15T00:06:35;22.15;;;9.60;;
64653;SDS011;51065;48.884;12.598;2022-11-15T00:09:01;22.38;;;9.80;;
64653;SDS011;51065;48.884;12.598;2022-11-15T00:11:27;22.02;;;10.65;;
64653;SDS011;51065;48.884;12.598;2022-11-15T00:13:56;22.75;;;9.98;;
64653;SDS011;51065;48.884;12.598;2022-11-15T00:16:22;20.15;;;9.88;;
64653;SDS011;51065;48.884;12.598;2022-11-15T00:18:48;20.92;;;9.60;;
64653;SDS011;51065;48.884;12.598;2022-11-15T00:21:14;18.83;;;8.65;;
64653;SDS011;51065;48.884;12.598;2022-11-15T00:23:40;20.83;;;8.85;;
64653;SDS011;51065;48.884;12.598;2022-11-15T00:26:06;21.08;;;8.70;;
64653;SDS011;51065;48.884;12.598;2022-11-15T00:28:35;20.65;;;9.05;;
64653;SDS011;51065;48.884;12.598;2022-11-15T00:31:04;21.95;;;9.00;;
64653;SDS011;51065;48.884;12.598;2022-11-15T00:33:32;21.70;;;9.00;;
64653;SDS011;51065;48.884;12.598;2022-11-15T00:38:31;17.63;;;8.27;;
64653;SDS011;51065;48.884;12.598;2022-11-15T00:40:58;20.40;;;8.63;;
64653;SDS011;51065;48.884;12.598;2022-11-15T00:43:24;18.13;;;7.75;;
64653;SDS011;51065;48.884;12.598;2022-11-15T00:45:50;19.90;;;8.70;;
64653;SDS011;51065;48.884;12.598;2022-11-15T00:48:15;19.25;;;8.23;;
64653;SDS011;51065;48.884;12.598;2022-11-15T00:50:41;17.55;;;7.90;;
64653;SDS011;51065;48.884;12.598;2022-11-15T00:53:06;19.52;;;8.40;;
64653;SDS011;51065;48.884;12.598;2022-11-15T00:55:32;19.25;;;7.68;;
64653;SDS011;51065;48.884;12.598;2022-11-15T00:57:57;18.90;;;8.20;;
64653;SDS011;51065;48.884;12.598;2022-11-15T01:00:23;19.92;;;8.63;;
64653;SDS011;51065;48.884;12.598;2022-11-15T01:02:49;19.65;;;8.30;;
64653;SDS011;51065;48.884;12.598;2022-11-15T01:05:14;22.58;;;8.82;;
64653;SDS011;51065;48.884;12.598;2022-11-15T01:07:40;20.23;;;8.88;;
64653;SDS011;51065;48.884;12.598;2022-11-15T01:10:06;18.80;;;8.02;;
64653;SDS011;51065;48.884;12.598;2022-11-15T01:12:31;17.63;;;7.57;;
64653;SDS011;51065;48.884;12.598;2022-11-15T01:14:57;20.35;;;8.25;;
64653;SDS011;51065;48.884;12.598;2022-11-15T01:17:23;19.40;;;8.50;;
64653;SDS011;51065;48.884;12.598;2022-11-15T01:19:49;19.67;;;8.57;;
64653;SDS011;51065;48.884;12.598;2022-11-15T01:22:15;20.15;;;7.65;;
64653;SDS011;51065;48.884;12.598;2022-11-15T01:24:41;20.13;;;8.27;;
64653;SDS011;51065;48.884;12.598;2022-11-15T01:27:06;20.98;;;7.95;;
64653;SDS011;51065;48.884;12.598;2022-11-15T01:29:32;22.48;;;8.75;;
64653;SDS011;51065;48.884;12.598;2022-11-15T01:31:58;18.30;;;7.05;;
64653;SDS011;51065;48.884;12.598;2022-11-15T01:34:23;18.98;;;8.13;;
64653;SDS011;51065;48.884;12.598;2022-11-15T01:36:49;18.50;;;7.80;;
64653;SDS011;51065;48.884;12.598;2022-11-15T01:39:14;19.90;;;8.00;;
64653;SDS011;51065;48.884;12.598;2022-11-15T01:41:40;19.95;;;8.07;;
64653;SDS011;51065;48.884;12.598;2022-11-15T01:47:15;17.00;;;8.07;;
64653;SDS011;51065;48.884;12.598;2022-11-15T01:49:55;17.83;;;7.22;;
64653;SDS011;51065;48.884;12.598;2022-11-15T01:52:28;19.60;;;7.57;;
64653;SDS011;51065;48.884;12.598;2022-11-15T01:55:01;18.42;;;7.93;;
64653;SDS011;51065;48.884;12.598;2022-11-15T01:57:37;17.15;;;7.22;;
64653;SDS011;51065;48.884;12.598;2022-11-15T02:00:04;19.33;;;8.38;;
64653;SDS011;51065;48.884;12.598;2022-11-15T02:02:32;20.13;;;8.20;;
64653;SDS011;51065;48.884;12.598;2022-11-15T02:04:58;19.35;;;8.15;;
64653;SDS011;51065;48.884;12.598;2022-11-15T02:07:24;17.60;;;7.18;;
64653;SDS011;51065;48.884;12.598;2022-11-15T02:09:50;19.88;;;7.97;;
64653;SDS011;51065;48.884;12.598;2022-11-15T02:12:18;16.73;;;7.32;;
64653;SDS011;51065;48.884;12.598;2022-11-15T02:14:47;16.45;;;6.85;;
64653;SDS011;51065;48.884;12.598;2022-11-15T02:20:42;19.65;;;7.68;;
64653;SDS011;51065;48.884;12.598;2022-11-15T02:29:13;19.15;;;7.78;;
64653;SDS011;51065;48.884;12.598;2022-11-15T02:32:05;18.00;;;7.72;;
64653;SDS011;51065;48.884;12.598;2022-11-15T02:35:01;18.33;;;7.75;;
64653;SDS011;51065;48.884;12.598;2022-11-15T02:42:41;17.35;;;7.45;;
64653;SDS011;51065;48.884;12.598;2022-11-15T02:45:36;18.85;;;7.60;;
64653;SDS011;51065;48.884;12.598;2022-11-15T02:48:05;16.10;;;6.72;;
64653;SDS011;51065;48.884;12.598;2022-11-15T02:50:34;18.40;;;7.55;;
64653;SDS011;51065;48.884;12.598;2022-11-15T02:52:59;20.17;;;7.47;;
64653;SDS011;51065;48.884;12.598;2022-11-15T02:55:58;19.70;;;7.45;;
64653;SDS011;51065;48.884;12.598;2022-11-15T03:00:59;16.23;;;6.70;;
64653;SDS011;51065;48.884;12.598;2022-11-15T03:06:46;19.85;;;8.65;;
64653;SDS011;51065;48.884;12.598;2022-11-15T03:09:33;18.20;;;7.57;;
64653;SDS011;51065;48.884;12.598;2022-11-15T03:12:11;18.42;;;7.30;;
64653;SDS011;51065;48.884;12.598;2022-11-15T03:15:29;20.00;;;7.88;;
64653;SDS011;51065;48.884;12.598;2022-11-15T03:17:42;19.23;;;8.18;;
64653;SDS011;51065;48.884;12.598;2022-11-15T03:20:14;18.40;;;6.97;;
64653;SDS011;51065;48.884;12.598;2022-11-15T03:22:43;18.65;;;7.65;;
64653;SDS011;51065;48.884;12.598;2022-11-15T03:25:12;16.45;;;6.88;;
64653;SDS011;51065;48.884;12.598;2022-11-15T03:27:46;19.17;;;7.75;;
64653;SDS011;51065;48.884;12.598;2022-11-15T03:30:15;18.15;;;7.55;;
64653;SDS011;51065;48.884;12.598;2022-11-15T03:32:44;16.67;;;7.38;;
64653;SDS011;51065;48.884;12.598;2022-11-15T03:35:19;14.85;;;6.90;;
64653;SDS011;51065;48.884;12.598;2022-11-15T03:40:47;18.77;;;6.97;;
64653;SDS011;51065;48.884;12.598;2022-11-15T03:43:28;17.42;;;7.28;;
64653;SDS011;51065;48.884;12.598;2022-11-15T03:46:14;18.10;;;7.00;;
64653;SDS011;51065;48.884;12.598;2022-11-15T03:49:20;16.95;;;6.82;;
64653;SDS011;51065;48.884;12.598;2022-11-15T03:52:03;18.45;;;7.10;;
64653;SDS011;51065;48.884;12.598;2022-11-15T03:54:30;15.02;;;6.53;;
64653;SDS011;51065;48.884;12.598;2022-11-15T03:56:55;16.40;;;6.82;;
64653;SDS011;51065;48.884;12.598;2022-11-15T03:59:21;19.80;;;8.73;;
64653;SDS011;51065;48.884;12.598;2022-11-15T04:01:47;18.70;;;7.78;;
64653;SDS011;51065;48.884;12.598;2022-11-15T04:04:13;18.20;;;7.38;;
64653;SDS011;51065;48.884;12.598;2022-11-15T04:06:38;17.48;;;7.63;;
64653;SDS011;51065;48.884;12.598;2022-11-15T04:09:04;19.85;;;7.65;;
64653;SDS011;51065;48.884;12.598;2022-11-15T04:11:30;16.52;;;6.93;;
64653;SDS011;51065;48.884;12.598;2022-11-15T04:13:55;15.20;;;6.80;;
64653;SDS011;51065;48.884;12.598;2022-11-15T04:16:21;14.75;;;6.05;;
64653;SDS011;51065;48.884;12.598;2022-11-15T04:18:46;18.50;;;6.82;;
64653;SDS011;51065;48.884;12.598;2022-11-15T04:21:35;15.85;;;7.35;;
64653;SDS011;51065;48.884;12.598;2022-11-15T04:24:19;18.33;;;7.22;;
64653;SDS011;51065;48.884;12.598;2022-11-15T04:26:45;17.35;;;6.90;;
64653;SDS011;51065;48.884;12.598;2022-11-15T04:29:10;15.73;;;6.38;;
64653;SDS011;51065;48.884;12.598;2022-11-15T04:31:55;15.90;;;6.00;;
64653;SDS011;51065;48.884;12.598;2022-11-15T04:34:20;16.38;;;6.32;;
64653;SDS011;51065;48.884;12.598;2022-11-15T04:36:46;14.85;;;5.90;;
64653;SDS011;51065;48.884;12.598;2022-11-15T04:39:30;16.65;;;6.00;;
64653;SDS011;51065;48.884;12.598;2022-11-15T04:41:56;15.48;;;5.57;;
64653;SDS011;51065;48.884;12.598;2022-11-15T04:44:21;13.85;;;5.28;;
64653;SDS011;51065;48.884;12.598;2022-11-15T04:46:47;15.20;;;5.45;;
64653;SDS011;51065;48.884;12.598;2022-11-15T04:49:12;13.77;;;5.85;;
64653;SDS011;51065;48.884;12.598;2022-11-15T04:51:38;13.48;;;5.25;;
64653;SDS011;51065;48.884;12.598;2022-11-15T04:54:04;12.85;;;5.38;;
64653;SDS011;51065;48.884;12.598;2022-11-15T04:56:29;12.52;;;5.70;;
64653;SDS011;51065;48.884;12.598;2022-11-15T04:58:55;12.27;;;5.25;;
64653;SDS011;51065;48.884;12.598;2022-11-15T05:01:20;12.98;;;5.05;;
64653;SDS011;51065;48.884;12.598;2022-11-15T05:03:46;15.73;;;5.55;;
64653;SDS011;51065;48.884;12.598;2022-11-15T05:06:30;12.75;;;5.65;;
64653;SDS011;51065;48.884;12.598;2022-11-15T05:08:56;13.00;;;5.75;;
64653;SDS011;51065;48.884;12.598;2022-11-15T05:11:22;12.90;;;5.13;;
64653;SDS011;51065;48.884;12.598;2022-11-15T05:13:48;13.27;;;5.43;;
64653;SDS011;51065;48.884;12.598;2022-11-15T05:16:14;12.20;;;4.95;;
64653;SDS011;51065;48.884;12.598;2022-11-15T05:18:39;13.32;;;5.13;;
64653;SDS011;51065;48.884;12.598;2022-11-15T05:21:06;14.07;;;5.57;;
64653;SDS011;51065;48.884;12.598;2022-11-15T05:23:33;15.70;;;5.60;;
64653;SDS011;51065;48.884;12.598;2022-11-15T05:25:59;14.18;;;5.13;;
64653;SDS011;51065;48.884;12.598;2022-11-15T05:28:26;15.05;;;5.28;;
64653;SDS011;51065;48.884;12.598;2022-11-15T05:30:51;14.30;;;4.82;;
64653;SDS011;51065;48.884;12.598;2022-11-15T05:33:17;13.38;;;5.28;;
64653;SDS011;51065;48.884;12.598;2022-11-15T05:35:45;10.90;;;4.78;;
64653;SDS011;51065;48.884;12.598;2022-11-15T05:38:15;12.05;;;4.93;;
64653;SDS011;51065;48.884;12.598;2022-11-15T05:40:41;11.18;;;4.85;;
64653;SDS011;51065;48.884;12.598;2022-11-15T05:43:06;11.93;;;4.43;;
64653;SDS011;51065;48.884;12.598;2022-11-15T05:45:32;11.57;;;4.40;;
64653;SDS011;51065;48.884;12.598;2022-11-15T05:47:59;11.43;;;4.18;;
64653;SDS011;51065;48.884;12.598;2022-11-15T05:50:29;14.75;;;4.82;;
64653;SDS011;51065;48.884;12.598;2022-11-15T05:52:55;11.73;;;5.13;;
64653;SDS011;51065;48.884;12.598;2022-11-15T05:55:21;13.88;;;5.68;;
64653;SDS011;51065;48.884;12.598;2022-11-15T05:57:47;12.77;;;5.13;;
64653;SDS011;51065;48.884;12.598;2022-11-15T06:00:13;14.63;;;5.65;;
64653;SDS011;51065;48.884;12.598;2022-11-15T06:02:39;11.82;;;4.45;;
64653;SDS011;51065;48.884;12.598;2022-11-15T06:05:05;9.43;;;4.35;;
64653;SDS011;51065;48.884;12.598;2022-11-15T06:07:30;12.90;;;4.85;;
64653;SDS011;51065;48.884;12.598;2022-11-15T06:09:56;11.88;;;4.53;;
64653;SDS011;51065;48.884;12.598;2022-11-15T06:12:22;12.55;;;4.35;;
64653;SDS011;51065;48.884;12.598;2022-11-15T06:14:47;10.13;;;4.20;;
64653;SDS011;51065;48.884;12.598;2022-11-15T06:17:13;10.23;;;4.43;;
64653;SDS011;51065;48.884;12.598;2022-11-15T06:19:38;13.07;;;4.68;;
64653;SDS011;51065;48.884;12.598;2022-11-15T06:22:04;12.52;;;4.68;;
64653;SDS011;51065;48.884;12.598;2022-11-15T06:24:30;11.48;;;4.80;;
64653;SDS011;51065;48.884;12.598;2022-11-15T06:26:55;13.88;;;5.05;;
64653;SDS011;51065;48.884;12.598;2022-11-15T06:29:22;14.68;;;5.25;;
64653;SDS011;51065;48.884;12.598;2022-11-15T06:31:48;14.48;;;5.53;;
64653;SDS011;51065;48.884;12.598;2022-11-15T06:34:13;12.65;;;4.88;;
64653;SDS011;51065;48.884;12.598;2022-11-15T06:36:39;16.08;;;6.20;;
64653;SDS011;51065;48.884;12.598;2022-11-15T06:39:04;13.55;;;4.88;;
64653;SDS011;51065;48.884;12.598;2022-11-15T06:41:33;13.68;;;5.05;;
64653;SDS011;51065;48.884;12.598;2022-11-15T06:43:59;14.38;;;5.63;;
64653;SDS011;51065;48.884;12.598;2022-11-15T06:46:24;17.20;;;6.10;;
64653;SDS011;51065;48.884;12.598;2022-11-15T06:48:50;14.80;;;6.10;;
64653;SDS011;51065;48.884;12.598;2022-11-15T06:51:17;12.70;;;5.32;;
64653;SDS011;51065;48.884;12.598;2022-11-15T06:53:42;13.73;;;4.90;;
64653;SDS011;51065;48.884;12.598;2022-11-15T06:56:08;16.00;;;5.95;;
64653;SDS011;51065;48.884;12.598;2022-11-15T06:58:35;16.23;;;6.05;;
64653;SDS011;51065;48.884;12.598;2022-11-15T07:01:02;15.45;;;6.22;;
64653;SDS011;51065;48.884;12.598;2022-11-15T07:03:35;17.67;;;6.97;;
64653;SDS011;51065;48.884;12.598;2022-11-15T07:06:01;18.13;;;7.43;;
64653;SDS011;51065;48.884;12.598;2022-11-15T07:08:28;16.13;;;7.95;;
64653;SDS011;51065;48.884;12.598;2022-11-15T07:10:54;15.73;;;6.53;;
64653;SDS011;51065;48.884;12.598;2022-11-15T07:13:25;16.52;;;6.70;;
64653;SDS011;51065;48.884;12.598;2022-11-15T07:15:51;14.73;;;6.47;;
64653;SDS011;51065;48.884;12.598;2022-11-15T07:18:17;16.52;;;6.68;;
64653;SDS011;51065;48.884;12.598;2022-11-15T07:20:43;17.75;;;7.45;;
64653;SDS011;51065;48.884;12.598;2022-11-15T07:23:09;14.95;;;6.15;;
64653;SDS011;51065;48.884;12.598;2022-11-15T07:25:34;14.20;;;6.55;;
64653;SDS011;51065;48.884;12.598;2022-11-15T07:28:00;17.02;;;7.28;;
64653;SDS011;51065;48.884;12.598;2022-11-15T07:30:26;15.48;;;5.90;;
64653;SDS011;51065;48.884;12.598;2022-11-15T07:32:56;14.35;;;5.75;;
64653;SDS011;51065;48.884;12.598;2022-11-15T07:35:23;12.63;;;5.43;;
64653;SDS011;51065;48.884;12.598;2022-11-15T07:37:56;12.48;;;5.13;;
64653;SDS011;51065;48.884;12.598;2022-11-15T07:40:23;10.65;;;5.65;;
64653;SDS011;51065;48.884;12.598;2022-11-15T07:42:49;12.85;;;5.47;;
64653;SDS011;51065;48.884;12.598;2022-11-15T07:45:18;15.02;;;5.75;;
64653;SDS011;51065;48.884;12.598;2022-11-15T07:47:48;12.30;;;5.03;;
64653;SDS011;51065;48.884;12.598;2022-11-15T07:50:14;10.82;;;4.85;;
64653;SDS011;51065;48.884;12.598;2022-11-15T07:52:41;10.85;;;4.90;;
64653;SDS011;51065;48.884;12.598;2022-11-15T07:55:07;11.65;;;4.55;;
64653;SDS011;51065;48.884;12.598;2022-11-15T07:57:33;13.63;;;5.70;;
64653;SDS011;51065;48.884;12.598;2022-11-15T07:59:58;11.95;;;5.90;;
64653;SDS011;51065;48.884;12.598;2022-11-15T08:02:24;16.27;;;6.53;;
64653;SDS011;51065;48.884;12.598;2022-11-15T08:04:49;13.52;;;5.53;;
64653;SDS011;51065;48.884;12.598;2022-11-15T08:07:15;13.27;;;5.50;;
64653;SDS011;51065;48.884;12.598;2022-11-15T08:09:41;11.00;;;4.75;;
64653;SDS011;51065;48.884;12.598;2022-11-15T08:12:06;12.35;;;5.20;;
64653;SDS011;51065;48.884;12.598;2022-11-15T08:14:32;13.40;;;5.82;;
64653;SDS011;51065;48.884;12.598;2022-11-15T08:16:58;14.57;;;5.15;;
64653;SDS011;51065;48.884;12.598;2022-11-15T08:19:23;15.60;;;5.63;;
64653;SDS011;51065;48.884;12.598;2022-11-15T08:21:49;13.43;;;5.68;;
64653;SDS011;51065;48.884;12.598;2022-11-15T08:24:14;15.43;;;5.63;;
64653;SDS011;51065;48.884;12.598;2022-11-15T08:26:40;12.65;;;5.32;;
64653;SDS011;51065;48.884;12.598;2022-11-15T08:29:06;11.93;;;5.22;;
64653;SDS011;51065;48.884;12.598;2022-11-15T08:31:33;12.02;;;5.57;;
64653;SDS011;51065;48.884;12.598;2022-11-15T08:34:01;16.20;;;6.25;;
64653;SDS011;51065;48.884;12.598;2022-11-15T08:36:30;17.02;;;6.85;;
64653;SDS011;51065;48.884;12.598;2022-11-15T08:38:56;14.98;;;7.05;;
64653;SDS011;51065;48.884;12.598;2022-11-15T08:41:26;16.75;;;7.10;;
64653;SDS011;51065;48.884;12.598;2022-11-15T08:43:54;16.33;;;6.15;;
64653;SDS011;51065;48.884;12.598;2022-11-15T08:46:20;13.02;;;6.10;;
64653;SDS011;51065;48.884;12.598;2022-11-15T08:48:46;17.20;;;6.65;;
64653;SDS011;51065;48.884;12.598;2022-11-15T08:51:11;14.82;;;6.32;;
64653;SDS011;51065;48.884;12.598;2022-11-15T08:53:37;15.50;;;6.60;;
64653;SDS011;51065;48.884;12.598;2022-11-15T08:56:04;14.90;;;6.43;;
64653;SDS011;51065;48.884;12.598;2022-11-15T08:58:35;12.65;;;6.20;;
64653;SDS011;51065;48.884;12.598;2022-11-15T09:01:01;14.23;;;6.15;;
64653;SDS011;51065;48.884;12.598;2022-11-15T09:03:28;14.50;;;6.30;;
64653;SDS011;51065;48.884;12.598;2022-11-15T09:05:57;13.25;;;6.10;;
64653;SDS011;51065;48.884;12.598;2022-11-15T09:10:50;12.85;;;5.32;;
64653;SDS011;51065;48.884;12.598;2022-11-15T09:13:16;16.83;;;6.50;;
64653;SDS011;51065;48.884;12.598;2022-11-15T09:15:41;13.10;;;5.75;;
64653;SDS011;51065;48.884;12.598;2022-11-15T09:18:07;13.52;;;5.93;;
64653;SDS011;51065;48.884;12.598;2022-11-15T09:20:33;13.85;;;5.82;;
64653;SDS011;51065;48.884;12.598;2022-11-15T09:23:02;14.57;;;5.80;;
64653;SDS011;51065;48.884;12.598;2022-11-15T09:27:55;13.98;;;5.50;;
64653;SDS011;51065;48.884;12.598;2022-11-15T09:30:21;13.52;;;5.72;;
64653;SDS011;51065;48.884;12.598;2022-11-15T09:32:48;12.57;;;5.97;;
64653;SDS011;51065;48.884;12.598;2022-11-15T09:35:13;13.10;;;5.28;;
64653;SDS011;51065;48.884;12.598;2022-11-15T09:37:39;15.25;;;6.10;;
64653;SDS011;51065;48.884;12.598;2022-11-15T09:40:05;13.23;;;5.80;;
64653;SDS011;51065;48.884;12.598;2022-11-15T09:42:52;13.18;;;5.75;;
64653;SDS011;51065;48.884;12.598;2022-11-15T09:51:08;16.67;;;6.45;;
64653;SDS011;51065;48.884;12.598;2022-11-15T09:53:52;15.48;;;7.22;;
64653;SDS011;51065;48.884;12.598;2022-11-15T09:56:27;13.65;;;6.43;;
64653;SDS011;51065;48.884;12.598;2022-11-15T10:05:00;15.38;;;6.22;;
64653;SDS011;51065;48.884;12.598;2022-11-15T10:10:29;14.55;;;5.78;;
64653;SDS011;51065;48.884;12.598;2022-11-15T10:13:03;14.68;;;6.07;;
64653;SDS011;51065;48.884;12.598;2022-11-15T10:15:29;16.65;;;6.70;;
64653;SDS011;51065;48.884;12.598;2022-11-15T10:20:44;13.90;;;5.97;;
64653;SDS011;51065;48.884;12.598;2022-11-15T10:23:14;18.45;;;6.25;;
64653;SDS011;51065;48.884;12.598;2022-11-15T10:25:42;14.38;;;5.85;;
64653;SDS011;51065;48.884;12.598;2022-11-15T10:28:27;15.40;;;6.57;;
64653;SDS011;51065;48.884;12.598;2022-11-15T10:30:55;17.27;;;7.45;;
64653;SDS011;51065;48.884;12.598;2022-11-15T10:33:40;16.35;;;6.80;;
64653;SDS011;51065;48.884;12.598;2022-11-15T10:43:44;17.48;;;7.05;;
64653;SDS011;51065;48.884;12.598;2022-11-15T10:46:18;18.40;;;7.18;;
64653;SDS011;51065;48.884;12.598;2022-11-15T10:48:45;16.23;;;6.65;;
64653;SDS011;51065;48.884;12.598;2022-11-15T10:51:22;16.92;;;6.43;;
64653;SDS011;51065;48.884;12.598;2022-11-15T10:53:53;17.20;;;7.15;;
64653;SDS011;51065;48.884;12.598;2022-11-15T10:56:21;16.13;;;6.47;;
64653;SDS011;51065;48.884;12.598;2022-11-15T10:58:51;17.23;;;7.10;;
64653;SDS011;51065;48.884;12.598;2022-11-15T11:01:19;16.85;;;6.68;;
64653;SDS011;51065;48.884;12.598;2022-11-15T11:03:58;15.60;;;6.88;;
64653;SDS011;51065;48.884;12.598;2022-11-15T11:06:26;17.30;;;6.80;;
64653;SDS011;51065;48.884;12.598;2022-11-15T11:08:55;13.82;;;6.38;;
64653;SDS011;51065;48.884;12.598;2022-11-15T11:11:43;15.88;;;6.85;;
64653;SDS011;51065;48.884;12.598;2022-11-15T11:14:11;17.52;;;6.35;;
64653;SDS011;51065;48.884;12.598;2022-11-15T11:19:23;13.95;;;6.32;;
64653;SDS011;51065;48.884;12.598;2022-11-15T11:24:48;16.60;;;7.75;;
64653;SDS011;51065;48.884;12.598;2022-11-15T11:30:17;17.55;;;8.20;;
64653;SDS011;51065;48.884;12.598;2022-11-15T11:35:58;15.55;;;7.35;;
64653;SDS011;51065;48.884;12.598;2022-11-15T11:49:17;18.10;;;8.73;;
64653;SDS011;51065;48.884;12.598;2022-11-15T11:52:07;18.42;;;8.13;;
64653;SDS011;51065;48.884;12.598;2022-11-15T12:00:16;18.38;;;8.70;;
64653;SDS011;51065;48.884;12.598;2022-11-15T12:08:29;18.77;;;8.85;;
64653;SDS011;51065;48.884;12.598;2022-11-15T12:10:53;18.60;;;8.45;;
64653;SDS011;51065;48.884;12.598;2022-11-15T12:13:25;18.38;;;8.85;;
64653;SDS011;51065;48.884;12.598;2022-11-15T12:16:18;18.80;;;9.13;;
64653;SDS011;51065;48.884;12.598;2022-11-15T12:18:50;17.73;;;8.90;;
64653;SDS011;51065;48.884;12.598;2022-11-15T12:21:32;17.45;;;8.77;;
64653;SDS011;51065;48.884;12.598;2022-11-15T12:26:52;19.35;;;8.38;;
64653;SDS011;51065;48.884;12.598;2022-11-15T12:32:00;19.35;;;8.52;;
64653;SDS011;51065;48.884;12.598;2022-11-15T12:34:29;17.55;;;7.72;;
64653;SDS011;51065;48.884;12.598;2022-11-15T12:40:31;15.05;;;7.63;;
64653;SDS011;51065;48.884;12.598;2022-11-15T12:45:38;21.13;;;9.32;;
64653;SDS011;51065;48.884;12.598;2022-11-15T12:50:53;18.77;;;8.93;;
64653;SDS011;51065;48.884;12.598;2022-11-15T12:58:44;18.90;;;8.82;;
64653;SDS011;51065;48.884;12.598;2022-11-15T13:09:49;18.10;;;8.27;;
64653;SDS011;51065;48.884;12.598;2022-11-15T13:11:57;17.77;;;8.48;;
64653;SDS011;51065;48.884;12.598;2022-11-15T13:15:09;17.40;;;8.10;;
64653;SDS011;51065;48.884;12.598;2022-11-15T13:19:44;17.85;;;8.68;;
64653;SDS011;51065;48.884;12.598;2022-11-15T13:22:11;19.08;;;8.50;;
64653;SDS011;51065;48.884;12.598;2022-11-15T13:24:56;18.33;;;8.73;;
64653;SDS011;51065;48.884;12.598;2022-11-15T13:27:22;17.67;;;8.07;;
64653;SDS011;51065;48.884;12.598;2022-11-15T13:29:47;21.23;;;8.80;;
64653;SDS011;51065;48.884;12.598;2022-11-15T13:32:13;24.15;;;9.10;;
64653;SDS011;51065;48.884;12.598;2022-11-15T13:34:44;20.40;;;8.40;;
64653;SDS011;51065;48.884;12.598;2022-11-15T13:39:49;18.63;;;8.40;;
64653;SDS011;51065;48.884;12.598;2022-11-15T13:42:15;21.85;;;9.50;;
64653;SDS011;51065;48.884;12.598;2022-11-15T13:44:55;20.77;;;9.48;;
64653;SDS011;51065;48.884;12.598;2022-11-15T13:47:25;19.27;;;8.38;;
64653;SDS011;51065;48.884;12.598;2022-11-15T13:49:52;24.88;;;11.38;;
64653;SDS011;51065;48.884;12.598;2022-11-15T13:52:18;20.75;;;10.20;;
64653;SDS011;51065;48.884;12.598;2022-11-15T13:54:56;23.65;;;9.25;;
64653;SDS011;51065;48.884;12.598;2022-11-15T13:57:30;18.98;;;8.75;;
64653;SDS011;51065;48.884;12.598;2022-11-15T14:00:04;20.75;;;8.75;;
64653;SDS011;51065;48.884;12.598;2022-11-15T14:02:47;19.48;;;7.93;;
64653;SDS011;51065;48.884;12.598;2022-11-15T14:05:23;21.52;;;8.68;;
64653;SDS011;51065;48.884;12.598;2022-11-15T14:10:30;20.92;;;8.10;;
64653;SDS011;51065;48.884;12.598;2022-11-15T14:12:58;19.92;;;9.35;;
64653;SDS011;51065;48.884;12.598;2022-11-15T14:15:34;24.77;;;9.50;;
64653;SDS011;51065;48.884;12.598;2022-11-15T14:18:03;29.30;;;8.45;;
64653;SDS011;51065;48.884;12.598;2022-11-15T14:23:00;24.07;;;8.80;;
64653;SDS011;51065;48.884;12.598;2022-11-15T14:25:28;19.70;;;8.20;;
64653;SDS011;51065;48.884;12.598;2022-11-15T14:28:11;18.05;;;7.65;;
64653;SDS011;51065;48.884;12.598;2022-11-15T14:30:56;17.42;;;7.38;;
64653;SDS011;51065;48.884;12.598;2022-11-15T14:35:55;20.83;;;8.77;;
64653;SDS011;51065;48.884;12.598;2022-11-15T14:38:22;17.98;;;8.32;;
64653;SDS011;51065;48.884;12.598;2022-11-15T14:40:51;19.55;;;9.23;;
64653;SDS011;51065;48.884;12.598;2022-11-15T14:43:18;22.17;;;9.65;;
64653;SDS011;51065;48.884;12.598;2022-11-15T14:45:44;20.05;;;9.02;;
64653;SDS011;51065;48.884;12.598;2022-11-15T14:48:10;20.52;;;8.30;;
64653;SDS011;51065;48.884;12.598;2022-11-15T14:50:35;17.55;;;8.05;;
64653;SDS011;51065;48.884;12.598;2022-11-15T14:53:01;20.27;;;8.38;;
64653;SDS011;51065;48.884;12.598;2022-11-15T14:55:32;18.73;;;7.78;;
64653;SDS011;51065;48.884;12.598;2022-11-15T14:58:04;21.35;;;8.75;;
64653;SDS011;51065;48.884;12.598;2022-11-15T15:00:32;21.98;;;9.43;;
64653;SDS011;51065;48.884;12.598;2022-11-15T15:02:58;22.08;;;9.73;;
64653;SDS011;51065;48.884;12.598;2022-11-15T15:08:08;24.83;;;10.35;;
64653;SDS011;51065;48.884;12.598;2022-11-15T15:10:35;23.52;;;11.20;;
64653;SDS011;51065;48.884;12.598;2022-11-15T15:13:03;23.33;;;10.68;;
64653;SDS011;51065;48.884;12.598;2022-11-15T15:15:34;25.23;;;11.00;;
64653;SDS011;51065;48.884;12.598;2022-11-15T15:18:02;23.67;;;10.43;;
64653;SDS011;51065;48.884;12.598;2022-11-15T15:20:29;20.95;;;10.52;;
64653;SDS011;51065;48.884;12.598;2022-11-15T15:22:55;22.25;;;10.38;;
64653;SDS011;51065;48.884;12.598;2022-11-15T15:27:55;24.23;;;10.70;;
64653;SDS011;51065;48.884;12.598;2022-11-15T15:30:26;23.27;;;10.45;;
64653;SDS011;51065;48.884;12.598;2022-11-15T15:32:53;22.17;;;10.15;;
64653;SDS011;51065;48.884;12.598;2022-11-15T15:35:19;21.45;;;10.20;;
64653;SDS011;51065;48.884;12.598;2022-11-15T15:37:45;26.65;;;11.40;;
64653;SDS011;51065;48.884;12.598;2022-11-15T15:40:21;29.92;;;12.18;;
64653;SDS011;51065;48.884;12.598;2022-11-15T15:42:49;23.98;;;11.80;;
64653;SDS011;51065;48.884;12.598;2022-11-15T15:45:15;23.48;;;10.98;;
64653;SDS011;51065;48.884;12.598;2022-11-15T15:47:42;25.17;;;11.13;;
64653;SDS011;51065;48.884;12.598;2022-11-15T15:52:47;26.85;;;12.75;;
64653;SDS011;51065;48.884;12.598;2022-11-15T15:55:13;26.85;;;13.60;;
64653;SDS011;51065;48.884;12.598;2022-11-15T15:57:39;28.98;;;13.50;;
64653;SDS011;51065;48.884;12.598;2022-11-15T16:00:05;31.17;;;14.32;;
64653;SDS011;51065;48.884;12.598;2022-11-15T16:02:31;22.02;;;12.15;;
64653;SDS011;51065;48.884;12.598;2022-11-15T16:04:57;35.35;;;17.70;;
64653;SDS011;51065;48.884;12.598;2022-11-15T16:07:22;28.73;;;14.48;;
64653;SDS011;51065;48.884;12.598;2022-11-15T16:09:48;35.05;;;16.85;;
64653;SDS011;51065;48.884;12.598;2022-11-15T16:12:30;34.53;;;14.75;;
64653;SDS011;51065;48.884;12.598;2022-11-15T16:14:58;25.67;;;14.07;;
64653;SDS011;51065;48.884;12.598;2022-11-15T16:17:25;28.02;;;14.52;;
64653;SDS011;51065;48.884;12.598;2022-11-15T16:19:56;28.08;;;12.68;;
64653;SDS011;51065;48.884;12.598;2022-11-15T16:22:22;27.13;;;12.73;;
64653;SDS011;51065;48.884;12.598;2022-11-15T16:24:47;35.50;;;18.95;;
64653;SDS011;51065;48.884;12.598;2022-11-15T16:27:19;47.80;;;25.67;;
64653;SDS011;51065;48.884;12.598;2022-11-15T16:29:46;38.42;;;19.77;;
64653;SDS011;51065;48.884;12.598;2022-11-15T16:32:19;27.10;;;12.70;;
64653;SDS011;51065;48.884;12.598;2022-11-15T16:35:11;25.42;;;12.10;;
64653;SDS011;51065;48.884;12.598;2022-11-15T16:37:39;26.35;;;13.27;;
64653;SDS011;51065;48.884;12.598;2022-11-15T16:40:27;29.65;;;14.98;;
64653;SDS011;51065;48.884;12.598;2022-11-15T16:42:58;29.70;;;16.45;;
64653;SDS011;51065;48.884;12.598;2022-11-15T16:45:27;27.90;;;15.02;;
64653;SDS011;51065;48.884;12.598;2022-11-15T16:47:53;26.23;;;13.35;;
64653;SDS011;51065;48.884;12.598;2022-11-15T16:50:24;26.77;;;13.05;;
64653;SDS011;51065;48.884;12.598;2022-11-15T16:52:52;23.58;;;11.45;;
64653;SDS011;51065;48.884;12.598;2022-11-15T16:55:19;21.42;;;10.48;;